Time;durP1;ratioP1;P1;durP2;ratioP2;P2;SDS_P1;SDS_P2;PMS_P1;PMS_P2;Temp;Humidity;BMP_temperature;BMP_pressure;BME280_temperature;BME280_humidity;BME280_pressure;Samples;Min_cycle;Max_cycle;Signal;HPM_P1;HPM_P2
2024/03/31 00:01:06;;;;;;;41.20;31.23;;;24.00;47.00;;;;;;5007426;28;20564;-63
2024/03/31 00:03:32;;;;;;;41.55;30.45;;;24.00;47.00;;;;;;5009002;28;20061;-63
2024/03/31 00:05:58;;;;;;;39.25;29.65;;;24.00;46.90;;;;;;5012128;28;20538;-63
2024/03/31 00:08:23;;;;;;;41.83;30.20;;;24.00;46.90;;;;;;5012329;28;20156;-62
2024/03/31 00:10:58;;;;;;;36.15;26.45;;;24.00;46.90;;;;;;5012078;28;20030;-62
2024/03/31 00:13:23;;;;;;;35.67;26.10;;;24.00;47.00;;;;;;5011884;28;20026;-63
2024/03/31 00:15:49;;;;;;;37.85;27.92;;;24.00;46.90;;;;;;5011047;28;20138;-63
2024/03/31 00:18:15;;;;;;;34.88;26.63;;;24.00;46.90;;;;;;5012297;28;20052;-63
2024/03/31 00:20:40;;;;;;;36.28;27.42;;;24.00;46.80;;;;;;5011663;28;20029;-63
2024/03/31 00:23:06;;;;;;;35.05;26.65;;;24.00;46.80;;;;;;5012087;28;20119;-63
2024/03/31 00:25:31;;;;;;;35.20;25.67;;;24.00;46.80;;;;;;5012146;28;20033;-62
2024/03/31 00:27:57;;;;;;;36.20;26.38;;;24.00;46.80;;;;;;5011837;28;20426;-63
2024/03/31 00:30:22;;;;;;;35.83;26.00;;;24.00;46.80;;;;;;5010731;28;20025;-63
2024/03/31 00:32:50;;;;;;;35.70;27.02;;;24.00;46.80;;;;;;5011856;28;20034;-63
2024/03/31 00:35:15;;;;;;;32.60;24.75;;;24.00;46.80;;;;;;5011753;28;20085;-63
2024/03/31 00:37:41;;;;;;;33.30;24.58;;;24.00;46.80;;;;;;5011171;28;20029;-62
2024/03/31 00:40:07;;;;;;;32.85;25.08;;;23.90;46.70;;;;;;5011664;28;20033;-63
2024/03/31 00:42:33;;;;;;;31.50;23.50;;;23.90;46.70;;;;;;5011693;28;20037;-63
2024/03/31 00:44:58;;;;;;;32.35;23.83;;;23.90;46.70;;;;;;5011548;28;20033;-62
2024/03/31 00:47:24;;;;;;;29.70;23.13;;;23.90;46.70;;;;;;5010752;28;20041;-63
2024/03/31 00:49:49;;;;;;;31.90;23.77;;;23.90;46.70;;;;;;5011348;28;20022;-63
2024/03/31 00:52:15;;;;;;;31.75;24.30;;;23.90;46.70;;;;;;5011145;28;20133;-62
2024/03/31 00:54:44;;;;;;;29.38;22.48;;;23.90;46.80;;;;;;5011512;28;20104;-62
2024/03/31 00:57:10;;;;;;;31.67;22.80;;;23.80;46.70;;;;;;5011374;28;20026;-62
2024/03/31 00:59:36;;;;;;;30.33;22.38;;;23.80;46.70;;;;;;5011285;28;20482;-62
2024/03/31 01:02:02;;;;;;;29.60;23.02;;;23.80;46.80;;;;;;5009496;28;20022;-62
2024/03/31 01:04:27;;;;;;;27.23;21.42;;;23.80;46.80;;;;;;5011280;28;20030;-62
2024/03/31 01:06:53;;;;;;;28.95;21.13;;;23.80;46.80;;;;;;5010751;28;20390;-62
2024/03/31 01:09:19;;;;;;;29.08;21.70;;;23.80;46.80;;;;;;5011207;28;20076;-62
2024/03/31 01:11:45;;;;;;;27.35;20.73;;;23.80;46.80;;;;;;5011198;28;20029;-62
2024/03/31 01:14:12;;;;;;;25.70;20.40;;;23.80;46.80;;;;;;5010773;28;20038;-62
2024/03/31 01:16:38;;;;;;;26.27;20.45;;;23.80;46.80;;;;;;5009603;28;20026;-62
2024/03/31 01:19:03;;;;;;;26.48;20.25;;;23.70;46.80;;;;;;5010685;28;20034;-62
2024/03/31 01:21:32;;;;;;;25.05;19.42;;;23.70;46.80;;;;;;5010555;28;20029;-62
2024/03/31 01:24:01;;;;;;;24.70;19.77;;;23.70;46.80;;;;;;5010852;28;20037;-62
2024/03/31 01:26:29;;;;;;;25.77;19.77;;;23.70;46.80;;;;;;5010959;28;20544;-62
2024/03/31 01:28:55;;;;;;;26.02;19.30;;;23.70;46.80;;;;;;5010331;28;20026;-62
2024/03/31 01:31:21;;;;;;;23.35;18.65;;;23.70;47.30;;;;;;5009520;28;20034;-62
2024/03/31 01:33:47;;;;;;;22.92;17.95;;;23.70;46.90;;;;;;5010527;28;20423;-62
2024/03/31 01:36:13;;;;;;;23.55;18.35;;;23.70;46.80;;;;;;5010293;28;20064;-62
2024/03/31 01:38:39;;;;;;;23.90;18.58;;;23.60;46.80;;;;;;5010365;28;20474;-63
2024/03/31 01:41:05;;;;;;;24.40;18.98;;;23.60;46.80;;;;;;5009981;28;20371;-62
2024/03/31 01:43:30;;;;;;;25.40;18.38;;;23.60;46.80;;;;;;5010327;28;20026;-62
2024/03/31 01:45:56;;;;;;;22.10;17.10;;;23.60;46.80;;;;;;5009441;28;20490;-61
2024/03/31 01:48:22;;;;;;;21.90;16.55;;;23.60;46.40;;;;;;5010401;28;20026;-62
2024/03/31 01:50:48;;;;;;;21.77;16.58;;;23.60;46.90;;;;;;5010086;28;20030;-62
2024/03/31 01:53:13;;;;;;;20.95;16.45;;;23.60;46.90;;;;;;5010082;28;20037;-62
2024/03/31 01:55:39;;;;;;;22.70;16.67;;;23.50;46.80;;;;;;5010024;28;20488;-62
2024/03/31 01:58:04;;;;;;;19.63;15.32;;;23.50;46.80;;;;;;5009913;28;20033;-62
2024/03/31 02:00:30;;;;;;;20.17;15.20;;;23.50;46.90;;;;;;5010211;28;20078;-61
2024/03/31 02:02:58;;;;;;;19.92;14.93;;;23.50;46.90;;;;;;5008990;28;20537;-62
2024/03/31 02:05:25;;;;;;;21.02;15.73;;;23.50;46.90;;;;;;5010330;28;20103;-61
2024/03/31 02:07:51;;;;;;;20.35;15.52;;;23.50;47.00;;;;;;5009736;28;20524;-62
2024/03/31 02:10:17;;;;;;;18.85;14.68;;;23.40;46.90;;;;;;5009964;28;20030;-62
2024/03/31 02:12:43;;;;;;;18.33;14.32;;;23.40;46.90;;;;;;5010063;28;20443;-62
2024/03/31 02:15:08;;;;;;;19.52;14.15;;;23.40;46.90;;;;;;5009891;28;20034;-65
2024/03/31 02:17:34;;;;;;;18.13;14.20;;;23.40;46.90;;;;;;5009195;28;20052;-64
2024/03/31 02:19:59;;;;;;;17.95;13.90;;;23.40;47.00;;;;;;5009811;28;20485;-64
2024/03/31 02:22:25;;;;;;;17.73;13.88;;;23.40;47.00;;;;;;5009687;28;20037;-65
2024/03/31 02:24:51;;;;;;;18.42;14.40;;;23.40;47.00;;;;;;5010153;28;20057;-65
2024/03/31 02:27:16;;;;;;;17.55;13.68;;;23.40;47.00;;;;;;5009115;28;20684;-64
2024/03/31 02:29:42;;;;;;;17.30;12.90;;;23.30;47.00;;;;;;5009658;28;20486;-64
2024/03/31 02:32:08;;;;;;;15.43;12.82;;;23.30;47.00;;;;;;5008760;28;20079;-65
2024/03/31 02:34:34;;;;;;;15.85;12.68;;;23.30;47.00;;;;;;5009719;28;20021;-64
2024/03/31 02:37:00;;;;;;;17.30;12.90;;;23.30;47.00;;;;;;5009338;28;20029;-64
2024/03/31 02:39:25;;;;;;;15.77;12.70;;;23.30;47.10;;;;;;5009552;28;20105;-64
2024/03/31 02:41:51;;;;;;;16.65;12.10;;;23.30;47.10;;;;;;5009460;28;20431;-65
2024/03/31 02:44:18;;;;;;;16.95;12.68;;;23.30;47.10;;;;;;5009556;28;20037;-64
2024/03/31 02:46:45;;;;;;;17.45;13.10;;;23.30;47.10;;;;;;5008459;28;20140;-64
2024/03/31 02:49:10;;;;;;;17.67;12.88;;;23.30;47.10;;;;;;5009503;28;20117;-64
2024/03/31 02:51:36;;;;;;;16.92;12.52;;;23.20;47.10;;;;;;5008944;28;20604;-64
2024/03/31 02:54:01;;;;;;;16.88;12.52;;;23.20;47.10;;;;;;5009339;28;20028;-64
2024/03/31 02:56:27;;;;;;;17.25;12.75;;;23.20;47.10;;;;;;5009821;28;20021;-64
2024/03/31 02:58:53;;;;;;;16.15;12.23;;;23.20;47.20;;;;;;5009362;28;20034;-64
2024/03/31 03:01:19;;;;;;;15.63;12.10;;;23.20;47.20;;;;;;4990659;28;20046;-65
2024/03/31 03:03:45;;;;;;;17.25;12.32;;;23.20;47.70;;;;;;5009276;28;20073;-64
2024/03/31 03:06:11;;;;;;;15.50;12.60;;;23.20;47.30;;;;;;5009300;28;20036;-65
2024/03/31 03:08:38;;;;;;;15.25;12.15;;;23.20;47.20;;;;;;5008835;28;20342;-64
2024/03/31 03:11:04;;;;;;;15.80;12.27;;;23.20;47.30;;;;;;5009250;28;20512;-64
2024/03/31 03:13:30;;;;;;;16.80;12.25;;;23.10;47.30;;;;;;5008636;28;20026;-63
2024/03/31 03:15:55;;;;;;;15.77;11.70;;;23.10;47.30;;;;;;5009663;28;20474;-62
2024/03/31 03:18:21;;;;;;;15.57;11.77;;;23.10;47.30;;;;;;5007932;28;20040;-62
2024/03/31 03:20:47;;;;;;;15.82;11.68;;;23.10;47.80;;;;;;5008982;28;20030;-62
2024/03/31 03:23:12;;;;;;;16.98;12.40;;;23.10;47.30;;;;;;5009140;28;20109;-62
2024/03/31 03:25:38;;;;;;;15.70;12.30;;;23.10;47.30;;;;;;5009308;28;20025;-61
2024/03/31 03:28:05;;;;;;;15.00;11.18;;;23.10;47.40;;;;;;5009392;28;20033;-62
2024/03/31 03:30:31;;;;;;;15.32;11.60;;;23.00;47.30;;;;;;5008952;28;20482;-61
2024/03/31 03:32:56;;;;;;;14.65;11.38;;;23.00;47.30;;;;;;5007761;28;20096;-62
2024/03/31 03:35:22;;;;;;;15.20;11.60;;;23.00;47.40;;;;;;5008967;28;20026;-62
2024/03/31 03:37:48;;;;;;;16.27;11.68;;;23.00;47.40;;;;;;5009440;28;20025;-62
2024/03/31 03:40:14;;;;;;;14.65;11.05;;;23.00;47.40;;;;;;5012890;28;20034;-62
2024/03/31 03:42:40;;;;;;;14.52;10.73;;;23.00;47.40;;;;;;5012230;28;20125;-62
2024/03/31 03:45:07;;;;;;;14.43;11.00;;;23.00;47.40;;;;;;5013068;28;20063;-61
2024/03/31 03:47:33;;;;;;;14.45;11.18;;;23.00;47.50;;;;;;5011326;28;20415;-62
2024/03/31 03:49:59;;;;;;;13.57;10.45;;;23.00;47.50;;;;;;5012516;28;20148;-62
2024/03/31 03:52:24;;;;;;;15.20;11.00;;;23.00;47.50;;;;;;5012385;28;20101;-62
2024/03/31 03:54:50;;;;;;;13.85;10.35;;;23.00;47.50;;;;;;5012746;28;20030;-62
2024/03/31 03:57:16;;;;;;;13.07;10.13;;;23.00;47.50;;;;;;5012476;28;20381;-61
2024/03/31 03:59:41;;;;;;;12.98;10.60;;;22.90;47.40;;;;;;5012546;28;20493;-62
2024/03/31 04:02:07;;;;;;;13.18;9.82;;;22.90;47.50;;;;;;5011249;28;20060;-62
2024/03/31 04:04:33;;;;;;;12.93;9.95;;;22.90;47.50;;;;;;5012314;28;20501;-62
2024/03/31 04:06:59;;;;;;;13.82;9.77;;;22.90;47.50;;;;;;5012136;28;20042;-62
2024/03/31 04:09:25;;;;;;;14.52;10.82;;;22.90;47.50;;;;;;5012087;28;20028;-62
2024/03/31 04:11:50;;;;;;;12.18;9.48;;;22.90;47.50;;;;;;5012101;28;20034;-61
2024/03/31 04:14:16;;;;;;;13.00;9.90;;;22.90;47.50;;;;;;5012212;28;20112;-62
2024/03/31 04:16:42;;;;;;;12.52;9.63;;;22.90;47.60;;;;;;5011195;28;20037;-62
2024/03/31 04:19:08;;;;;;;13.13;9.82;;;22.80;47.50;;;;;;5011755;28;20022;-62
2024/03/31 04:21:34;;;;;;;11.68;9.35;;;22.90;47.60;;;;;;5012143;28;20048;-62
2024/03/31 04:23:59;;;;;;;11.45;9.30;;;22.80;47.50;;;;;;5011658;28;20104;-62
2024/03/31 04:26:28;;;;;;;12.63;9.35;;;22.80;47.50;;;;;;5011736;28;20076;-65
2024/03/31 04:28:53;;;;;;;13.77;9.38;;;22.80;47.60;;;;;;5011797;28;20034;-65
2024/03/31 04:31:19;;;;;;;12.55;9.13;;;22.80;47.60;;;;;;5011657;28;20485;-65
2024/03/31 04:33:45;;;;;;;12.73;8.80;;;22.90;47.60;;;;;;5011083;28;20092;-64
2024/03/31 04:36:14;;;;;;;11.63;9.18;;;22.80;47.60;;;;;;5011963;28;20393;-64
2024/03/31 04:38:40;;;;;;;11.80;8.85;;;22.80;47.60;;;;;;5011166;28;20105;-64
2024/03/31 04:41:06;;;;;;;12.23;8.50;;;22.80;47.60;;;;;;5011372;28;20120;-64
2024/03/31 04:43:32;;;;;;;11.02;9.13;;;22.80;48.10;;;;;;5011702;28;20030;-65
2024/03/31 04:46:08;;;;;;;13.18;9.73;;;22.80;47.60;;;;;;5011740;28;20034;-64
2024/03/31 04:48:34;;;;;;;10.65;8.50;;;22.80;47.70;;;;;;5010096;28;20060;-65
2024/03/31 04:51:07;;;;;;;10.63;8.45;;;22.80;47.70;;;;;;5011067;28;21059;-64
2024/03/31 04:53:37;;;;;;;10.48;8.30;;;22.80;47.70;;;;;;5011225;28;20057;-65
2024/03/31 04:56:04;;;;;;;11.40;9.10;;;22.70;47.70;;;;;;5011013;28;20500;-65
2024/03/31 04:58:30;;;;;;;11.35;8.55;;;22.70;47.70;;;;;;5011323;28;20112;-64
2024/03/31 05:00:56;;;;;;;10.88;8.30;;;22.70;47.70;;;;;;5011206;28;20516;-65
2024/03/31 05:03:23;;;;;;;10.57;8.15;;;22.70;47.70;;;;;;5009452;28;20030;-64
2024/03/31 05:05:49;;;;;;;10.15;7.82;;;22.70;47.70;;;;;;5011055;28;20026;-65
2024/03/31 05:08:15;;;;;;;11.23;8.02;;;22.70;47.70;;;;;;5010666;28;20037;-64
2024/03/31 05:10:41;;;;;;;9.68;7.10;;;22.70;47.70;;;;;;5011066;28;20390;-65
2024/03/31 05:13:06;;;;;;;10.60;7.88;;;22.70;47.70;;;;;;5011020;28;20033;-64
2024/03/31 05:15:32;;;;;;;10.77;7.90;;;22.70;47.70;;;;;;5010873;28;20385;-65
2024/03/31 05:17:58;;;;;;;9.80;7.38;;;22.70;47.70;;;;;;5009967;28;20408;-64
2024/03/31 05:20:23;;;;;;;11.10;7.80;;;22.70;47.70;;;;;;5010980;28;20025;-64
2024/03/31 05:22:49;;;;;;;10.68;7.93;;;22.70;48.30;;;;;;5010787;28;20029;-65
2024/03/31 05:25:16;;;;;;;9.75;7.32;;;22.70;47.80;;;;;;5011259;28;20026;-64
2024/03/31 05:27:42;;;;;;;10.68;7.75;;;22.70;47.80;;;;;;5010727;28;20038;-64
2024/03/31 05:30:07;;;;;;;10.32;7.85;;;22.70;47.70;;;;;;5010727;28;20038;-65
2024/03/31 05:32:33;;;;;;;8.98;7.05;;;22.60;47.70;;;;;;5009457;28;20030;-65
2024/03/31 05:34:59;;;;;;;10.90;7.93;;;22.60;47.70;;;;;;5010760;28;20038;-64
2024/03/31 05:37:24;;;;;;;10.07;7.50;;;22.60;47.70;;;;;;5010508;28;20875;-64
2024/03/31 05:39:50;;;;;;;9.13;6.93;;;22.60;47.80;;;;;;5010277;28;20402;-64
2024/03/31 05:42:16;;;;;;;8.52;6.35;;;22.60;47.70;;;;;;5010604;28;20069;-64
2024/03/31 05:44:43;;;;;;;9.25;6.78;;;22.60;47.80;;;;;;5010615;28;20026;-62
2024/03/31 05:47:08;;;;;;;10.15;7.53;;;22.60;47.80;;;;;;4992583;28;20022;-64
2024/03/31 05:49:34;;;;;;;10.23;7.65;;;22.60;47.80;;;;;;5009279;28;20026;-65
2024/03/31 05:52:00;;;;;;;9.85;7.30;;;22.60;47.80;;;;;;5010284;28;20037;-64
2024/03/31 05:54:25;;;;;;;8.98;6.50;;;22.60;47.80;;;;;;5010106;28;20488;-65
2024/03/31 05:56:51;;;;;;;7.93;6.38;;;22.60;47.80;;;;;;5009735;28;20021;-63
2024/03/31 05:59:16;;;;;;;8.75;6.75;;;22.60;47.80;;;;;;5010212;28;20026;-63
2024/03/31 06:01:42;;;;;;;8.65;6.68;;;22.60;47.80;;;;;;5009339;28;20140;-63
2024/03/31 06:04:08;;;;;;;8.10;6.22;;;22.60;47.80;;;;;;5009473;28;20029;-62
2024/03/31 06:06:33;;;;;;;9.35;6.90;;;22.60;47.90;;;;;;5010110;28;20477;-63
2024/03/31 06:08:59;;;;;;;10.77;7.10;;;22.60;47.80;;;;;;5009813;28;20038;-62
2024/03/31 06:11:24;;;;;;;8.10;6.50;;;22.50;47.80;;;;;;5010233;28;20385;-62
2024/03/31 06:13:50;;;;;;;8.52;6.72;;;22.50;47.80;;;;;;5009827;28;20034;-63
2024/03/31 06:16:15;;;;;;;8.63;6.80;;;22.60;47.90;;;;;;5010046;28;20524;-63
2024/03/31 06:18:42;;;;;;;9.10;7.22;;;22.50;47.80;;;;;;5008664;28;20034;-62
2024/03/31 06:21:07;;;;;;;8.30;6.20;;;22.50;47.90;;;;;;5009910;28;20032;-62
2024/03/31 06:23:35;;;;;;;9.45;6.65;;;22.50;47.90;;;;;;5009520;28;20104;-62
2024/03/31 06:26:01;;;;;;;9.57;6.95;;;22.50;47.90;;;;;;5010099;28;20536;-62
2024/03/31 06:28:26;;;;;;;8.57;6.15;;;22.50;47.90;;;;;;5009628;28;20117;-63
2024/03/31 06:30:52;;;;;;;9.43;6.72;;;22.50;47.90;;;;;;5009974;28;20056;-62
2024/03/31 06:33:18;;;;;;;8.77;6.68;;;22.50;47.90;;;;;;5008787;28;20100;-62
2024/03/31 06:35:43;;;;;;;8.27;6.40;;;22.50;47.90;;;;;;5009245;28;20497;-62
2024/03/31 06:38:09;;;;;;;8.57;6.28;;;22.40;47.90;;;;;;5009403;28;20497;-63
2024/03/31 06:40:35;;;;;;;8.50;6.82;;;22.50;47.90;;;;;;5009186;28;20143;-63
2024/03/31 06:43:00;;;;;;;7.93;6.35;;;22.40;47.90;;;;;;5010133;28;20486;-62
2024/03/31 06:45:28;;;;;;;8.45;6.25;;;22.40;47.90;;;;;;5009269;28;20108;-62
2024/03/31 06:47:54;;;;;;;8.75;6.70;;;22.40;47.90;;;;;;5008412;28;20033;-62
2024/03/31 06:50:20;;;;;;;9.57;6.35;;;22.40;47.90;;;;;;5009283;28;20026;-63
2024/03/31 06:52:46;;;;;;;7.88;6.40;;;22.40;47.90;;;;;;5008875;28;20500;-62
2024/03/31 06:55:13;;;;;;;9.15;6.05;;;22.40;47.90;;;;;;5009050;28;20076;-62
2024/03/31 06:57:39;;;;;;;8.90;6.38;;;22.40;47.90;;;;;;5009249;28;20105;-61
2024/03/31 07:00:05;;;;;;;7.40;5.63;;;22.40;48.40;;;;;;5008958;28;20092;-62
2024/03/31 07:02:31;;;;;;;7.88;6.18;;;22.40;47.90;;;;;;5009098;28;20172;-62
2024/03/31 07:04:57;;;;;;;8.25;6.32;;;22.40;47.90;;;;;;5007989;28;20435;-63
2024/03/31 07:07:22;;;;;;;8.35;6.22;;;22.40;47.90;;;;;;5008943;28;20057;-64
2024/03/31 07:09:48;;;;;;;8.43;6.28;;;22.40;47.90;;;;;;5008582;28;20026;-65
2024/03/31 07:12:13;;;;;;;7.90;5.75;;;22.40;48.00;;;;;;4982890;28;20463;-65
2024/03/31 07:14:39;;;;;;;8.10;5.93;;;22.40;48.00;;;;;;5015300;28;20041;-65
2024/03/31 07:17:05;;;;;;;8.15;6.13;;;22.40;48.00;;;;;;5015646;28;20440;-65
2024/03/31 07:19:31;;;;;;;7.47;5.72;;;22.40;48.00;;;;;;5014473;28;20033;-65
2024/03/31 07:21:56;;;;;;;7.80;5.25;;;22.30;47.90;;;;;;5015380;28;20564;-64
2024/03/31 07:24:22;;;;;;;7.25;5.38;;;22.30;47.80;;;;;;5015167;28;20084;-65
2024/03/31 07:26:47;;;;;;;7.80;5.50;;;22.30;47.80;;;;;;4994759;28;20482;-64
2024/03/31 07:29:13;;;;;;;8.02;5.53;;;22.30;47.80;;;;;;5015265;28;20057;-64
2024/03/31 07:31:38;;;;;;;7.32;5.05;;;22.30;47.80;;;;;;5015240;28;20038;-65
2024/03/31 07:34:04;;;;;;;7.38;4.93;;;22.30;47.80;;;;;;5014552;28;20061;-65
2024/03/31 07:36:30;;;;;;;7.88;5.30;;;22.30;47.80;;;;;;5015461;28;20080;-64
2024/03/31 07:38:56;;;;;;;7.10;4.95;;;22.30;47.80;;;;;;5015006;28;20048;-65
2024/03/31 07:41:22;;;;;;;6.63;4.78;;;22.30;47.80;;;;;;5014764;28;20105;-64
2024/03/31 07:43:47;;;;;;;7.80;5.60;;;22.30;47.80;;;;;;5015308;28;20029;-65
2024/03/31 07:46:13;;;;;;;7.70;5.28;;;22.30;47.80;;;;;;5015256;28;20026;-65
2024/03/31 07:48:39;;;;;;;8.55;5.32;;;22.30;47.80;;;;;;5014293;28;20113;-65
2024/03/31 07:51:04;;;;;;;7.43;4.88;;;22.30;47.80;;;;;;5015328;28;20057;-65
2024/03/31 07:53:30;;;;;;;8.38;4.80;;;22.30;47.80;;;;;;5015315;28;20026;-65
2024/03/31 07:56:00;;;;;;;6.75;4.40;;;22.30;48.40;;;;;;5015258;28;20057;-63
2024/03/31 07:58:26;;;;;;;7.25;4.85;;;22.30;47.80;;;;;;5015105;28;20026;-62
2024/03/31 08:00:54;;;;;;;7.13;4.88;;;22.30;47.80;;;;;;5015240;28;20033;-62
2024/03/31 08:03:20;;;;;;;6.60;4.90;;;22.30;47.90;;;;;;5015300;28;20033;-63
2024/03/31 08:05:46;;;;;;;7.82;4.80;;;22.30;47.90;;;;;;5013966;28;20472;-63
2024/03/31 08:08:12;;;;;;;5.90;4.22;;;22.30;47.90;;;;;;5015086;28;20034;-62
2024/03/31 08:10:38;;;;;;;6.50;4.30;;;22.20;47.90;;;;;;5014371;28;20100;-62
2024/03/31 08:13:04;;;;;;;6.47;4.35;;;22.20;47.90;;;;;;5015124;28;20045;-62
2024/03/31 08:15:30;;;;;;;6.30;4.13;;;22.30;47.90;;;;;;5015505;28;20069;-63
2024/03/31 08:17:55;;;;;;;5.28;3.78;;;22.20;47.90;;;;;;5015051;28;20025;-62
2024/03/31 08:20:21;;;;;;;5.30;4.05;;;22.20;47.90;;;;;;5014521;28;20040;-62
2024/03/31 08:22:46;;;;;;;5.82;4.32;;;22.20;47.90;;;;;;5015071;28;20474;-63
2024/03/31 08:25:12;;;;;;;6.47;4.28;;;22.20;47.90;;;;;;5011916;28;20038;-62
2024/03/31 08:27:38;;;;;;;7.03;4.35;;;22.20;47.90;;;;;;5012080;28;20026;-62
2024/03/31 08:30:03;;;;;;;5.90;4.25;;;22.20;48.00;;;;;;5011964;28;20402;-62
2024/03/31 08:32:29;;;;;;;6.07;4.10;;;22.20;48.00;;;;;;5011749;28;20113;-62
2024/03/31 08:34:55;;;;;;;6.05;4.00;;;22.20;48.10;;;;;;5010784;28;20367;-63
2024/03/31 08:37:20;;;;;;;6.22;4.00;;;22.20;48.10;;;;;;5011698;28;20034;-62
2024/03/31 08:39:46;;;;;;;7.70;4.30;;;22.20;48.10;;;;;;5011694;28;20022;-63
2024/03/31 08:42:14;;;;;;;6.38;4.55;;;22.20;48.10;;;;;;5011721;28;20109;-62
2024/03/31 08:44:42;;;;;;;5.03;3.63;;;22.20;48.10;;;;;;5011602;28;20042;-62
2024/03/31 08:47:11;;;;;;;5.90;4.18;;;22.20;48.10;;;;;;5011656;28;20497;-63
2024/03/31 08:49:38;;;;;;;6.40;4.20;;;22.20;48.10;;;;;;5010368;28;20375;-62
2024/03/31 08:52:05;;;;;;;6.05;3.97;;;22.20;48.10;;;;;;5011224;28;20362;-63
2024/03/31 08:54:30;;;;;;;6.00;4.03;;;22.20;48.20;;;;;;5011126;28;20026;-62
2024/03/31 08:56:56;;;;;;;6.07;3.80;;;22.20;48.20;;;;;;5011467;28;20022;-62
2024/03/31 08:59:22;;;;;;;4.82;3.67;;;22.20;48.20;;;;;;5011594;28;20116;-62
2024/03/31 09:01:48;;;;;;;5.90;3.88;;;22.20;48.20;;;;;;5011423;28;20029;-62
2024/03/31 09:04:14;;;;;;;5.75;3.85;;;22.20;48.20;;;;;;5010180;28;20385;-62
2024/03/31 09:06:40;;;;;;;6.60;4.28;;;22.20;48.20;;;;;;4989132;28;20041;-62
2024/03/31 09:09:07;;;;;;;10.98;4.25;;;22.20;48.20;;;;;;5011204;28;20490;-62
2024/03/31 09:11:32;;;;;;;6.28;3.80;;;22.20;48.20;;;;;;5010774;28;20026;-62
2024/03/31 09:13:58;;;;;;;4.88;3.70;;;22.20;48.20;;;;;;5010766;28;20042;-62
2024/03/31 09:16:24;;;;;;;5.25;3.45;;;22.20;48.70;;;;;;5011449;28;20109;-64
2024/03/31 09:18:50;;;;;;;4.90;3.42;;;22.20;48.30;;;;;;5010887;28;20044;-65
2024/03/31 09:21:16;;;;;;;5.10;3.47;;;22.20;48.30;;;;;;5009257;28;20030;-65
2024/03/31 09:23:42;;;;;;;5.47;3.17;;;22.20;48.30;;;;;;5010986;28;20034;-65
2024/03/31 09:26:08;;;;;;;5.07;3.42;;;22.20;48.80;;;;;;5010146;28;20069;-63
2024/03/31 09:28:35;;;;;;;5.32;3.40;;;22.20;48.30;;;;;;5010319;28;20072;-62
2024/03/31 09:31:01;;;;;;;4.40;3.00;;;22.20;48.30;;;;;;5010858;28;20034;-63
2024/03/31 09:33:32;;;;;;;4.35;3.42;;;22.20;48.30;;;;;;5010697;28;20091;-62
2024/03/31 09:35:58;;;;;;;4.32;3.15;;;22.20;48.30;;;;;;5009574;28;20631;-62
2024/03/31 09:38:24;;;;;;;4.22;2.85;;;22.20;48.30;;;;;;5010525;28;20474;-62
2024/03/31 09:40:51;;;;;;;4.53;3.03;;;22.20;48.30;;;;;;5010346;28;20038;-63
2024/03/31 09:43:18;;;;;;;4.97;3.50;;;22.20;48.30;;;;;;5010599;28;20044;-62
2024/03/31 09:45:45;;;;;;;4.70;3.10;;;22.20;48.30;;;;;;5010507;28;20165;-62
2024/03/31 09:48:17;;;;;;;4.90;3.08;;;22.20;48.30;;;;;;5010442;28;20072;-62
2024/03/31 09:50:51;;;;;;;5.35;3.28;;;22.20;48.30;;;;;;5008832;28;20030;-62
2024/03/31 09:53:19;;;;;;;5.47;3.20;;;22.20;48.30;;;;;;5010224;28;20022;-62
2024/03/31 09:55:52;;;;;;;4.30;3.03;;;22.20;48.30;;;;;;5009990;28;20021;-62
2024/03/31 09:58:20;;;;;;;5.82;3.40;;;22.20;48.30;;;;;;5010301;28;20682;-62
2024/03/31 10:00:47;;;;;;;4.82;3.10;;;22.20;48.40;;;;;;5009962;28;20026;-63
2024/03/31 10:03:29;;;;;;;4.22;3.20;;;22.20;48.40;;;;;;5010125;28;20092;-63
2024/03/31 10:05:56;;;;;;;4.55;2.80;;;22.20;48.40;;;;;;5009068;28;20119;-63
2024/03/31 10:08:26;;;;;;;4.50;2.75;;;22.20;48.40;;;;;;4991475;28;20029;-62
2024/03/31 10:10:52;;;;;;;4.50;3.03;;;22.20;48.50;;;;;;5010147;28;20030;-63
2024/03/31 10:13:19;;;;;;;4.80;3.05;;;22.20;48.40;;;;;;5009980;28;20502;-62
2024/03/31 10:15:48;;;;;;;4.60;3.13;;;22.20;48.40;;;;;;5009324;28;20421;-63
2024/03/31 10:18:15;;;;;;;4.20;3.05;;;22.20;49.00;;;;;;5010122;28;20441;-62
2024/03/31 10:20:45;;;;;;;4.10;3.00;;;22.20;48.50;;;;;;5008789;28;20026;-62
2024/03/31 10:23:11;;;;;;;4.22;2.90;;;22.20;48.50;;;;;;5008968;28;20045;-63
2024/03/31 10:25:38;;;;;;;4.20;2.50;;;22.20;48.50;;;;;;5009762;28;20106;-63
2024/03/31 10:28:04;;;;;;;5.30;2.92;;;22.20;48.50;;;;;;5009695;28;20093;-62
2024/03/31 10:30:30;;;;;;;4.22;2.70;;;22.20;48.50;;;;;;5009546;28;20049;-62
2024/03/31 10:32:57;;;;;;;3.90;2.70;;;22.20;48.50;;;;;;5009617;28;20112;-63
2024/03/31 10:35:24;;;;;;;3.78;2.60;;;22.20;48.50;;;;;;5008609;28;20125;-62
2024/03/31 10:37:51;;;;;;;5.00;2.97;;;22.20;48.50;;;;;;5009513;28;20041;-65
2024/03/31 10:40:16;;;;;;;4.00;2.63;;;22.20;48.50;;;;;;5009161;28;20080;-65
2024/03/31 10:42:42;;;;;;;4.43;2.60;;;22.20;49.10;;;;;;5009519;28;20034;-65
2024/03/31 10:45:09;;;;;;;4.15;2.55;;;22.20;48.60;;;;;;5009638;28;20057;-64
2024/03/31 10:47:36;;;;;;;4.22;2.92;;;22.20;48.60;;;;;;5008995;28;20394;-65
2024/03/31 10:50:07;;;;;;;5.05;2.90;;;22.20;48.60;;;;;;5008209;28;20060;-64
2024/03/31 10:52:36;;;;;;;4.15;2.45;;;22.20;48.70;;;;;;5009431;28;20048;-64
2024/03/31 10:55:09;;;;;;;4.40;2.60;;;22.20;48.70;;;;;;5008952;28;20069;-65
2024/03/31 10:57:39;;;;;;;4.07;2.60;;;22.20;48.70;;;;;;5009198;28;20022;-65
2024/03/31 11:00:07;;;;;;;4.03;2.50;;;22.10;48.60;;;;;;5009291;28;20125;-65
2024/03/31 11:02:34;;;;;;;3.75;2.55;;;22.20;48.70;;;;;;5009065;28;20021;-64
2024/03/31 11:05:04;;;;;;;4.45;2.65;;;22.20;48.70;;;;;;5008072;28;20572;-65
2024/03/31 11:07:34;;;;;;;3.40;2.40;;;22.20;48.70;;;;;;5008900;28;20386;-65
2024/03/31 11:10:02;;;;;;;3.22;2.50;;;22.20;48.70;;;;;;5008665;28;20026;-65
2024/03/31 11:12:29;;;;;;;4.45;2.60;;;22.20;48.70;;;;;;5008861;28;20030;-65
2024/03/31 11:14:56;;;;;;;3.65;2.50;;;22.20;48.70;;;;;;5008893;28;20493;-65
2024/03/31 11:17:23;;;;;;;4.88;2.88;;;22.20;48.70;;;;;;5009384;28;20417;-64
2024/03/31 11:19:51;;;;;;;4.43;2.75;;;22.20;48.70;;;;;;5009216;28;20389;-65
2024/03/31 11:22:19;;;;;;;3.65;2.60;;;22.20;48.70;;;;;;5008117;28;20091;-65
2024/03/31 11:24:46;;;;;;;5.00;2.83;;;22.20;48.70;;;;;;5009085;28;20498;-64
2024/03/31 11:27:12;;;;;;;4.15;2.45;;;22.20;49.20;;;;;;5008824;28;20699;-63
2024/03/31 11:29:38;;;;;;;4.68;2.53;;;22.20;48.70;;;;;;5009067;28;20029;-62
2024/03/31 11:32:04;;;;;;;4.70;2.53;;;22.20;48.70;;;;;;5008917;28;20442;-62
2024/03/31 11:34:30;;;;;;;4.80;3.15;;;22.20;48.80;;;;;;5007781;28;20077;-63
2024/03/31 11:36:55;;;;;;;7.50;4.30;;;22.20;48.80;;;;;;5007761;28;20445;-62
2024/03/31 11:39:21;;;;;;;7.53;4.78;;;22.20;48.80;;;;;;5009075;28;20103;-62
2024/03/31 11:41:47;;;;;;;10.05;5.97;;;22.20;48.80;;;;;;5008836;28;20034;-62
2024/03/31 11:44:13;;;;;;;11.00;7.35;;;22.20;48.80;;;;;;5008794;28;20041;-62
2024/03/31 11:46:39;;;;;;;10.68;7.43;;;22.20;48.80;;;;;;5008465;28;20597;-63
2024/03/31 11:49:05;;;;;;;12.82;7.70;;;22.20;48.80;;;;;;5008874;28;20033;-62
2024/03/31 11:51:32;;;;;;;11.63;7.28;;;22.20;48.80;;;;;;5007439;28;20096;-63
2024/03/31 11:53:58;;;;;;;11.40;7.97;;;22.20;48.90;;;;;;5008355;28;20026;-62
2024/03/31 11:56:24;;;;;;;10.77;8.43;;;22.20;48.80;;;;;;5008393;28;20044;-62
2024/03/31 11:58:50;;;;;;;12.15;8.48;;;22.20;48.80;;;;;;5008642;28;20061;-63
2024/03/31 12:01:19;;;;;;;13.95;9.18;;;22.20;48.80;;;;;;5011622;28;20033;-62
2024/03/31 12:03:55;;;;;;;13.68;9.10;;;22.20;48.90;;;;;;5012362;28;20045;-62
2024/03/31 12:06:22;;;;;;;12.60;9.23;;;22.20;48.80;;;;;;5011282;28;20148;-62
2024/03/31 12:08:52;;;;;;;14.43;9.68;;;22.20;48.80;;;;;;5012072;28;20103;-62
2024/03/31 12:11:22;;;;;;;13.20;9.65;;;22.20;49.40;;;;;;5011998;28;20026;-63
2024/03/31 12:13:51;;;;;;;13.80;9.48;;;22.20;48.80;;;;;;5011983;28;20065;-63
2024/03/31 12:16:22;;;;;;;13.35;9.18;;;22.20;48.80;;;;;;5011966;28;20077;-62
2024/03/31 12:18:48;;;;;;;12.77;9.27;;;22.20;48.80;;;;;;5011736;28;20030;-63
2024/03/31 12:21:21;;;;;;;15.93;9.88;;;22.20;48.80;;;;;;5010819;28;20033;-62
2024/03/31 12:23:48;;;;;;;14.35;9.70;;;22.20;48.80;;;;;;5011859;28;20030;-62
2024/03/31 12:26:15;;;;;;;13.90;9.25;;;22.20;48.80;;;;;;5011656;28;20105;-62
2024/03/31 12:28:42;;;;;;;17.52;9.57;;;22.20;48.80;;;;;;5011710;28;20048;-63
2024/03/31 12:31:08;;;;;;;15.00;10.25;;;22.30;48.90;;;;;;5011723;28;20044;-62
2024/03/31 12:33:35;;;;;;;12.60;9.00;;;22.20;48.80;;;;;;5011639;28;20092;-63